Time;durP1;ratioP1;P1;durP2;ratioP2;P2;SDS_P1;SDS_P2;PMS_P1;PMS_P2;Temp;Humidity;BMP_temperature;BMP_pressure;BME280_temperature;BME280_humidity;BME280_pressure;Samples;Min_cycle;Max_cycle;Signal;HPM_P1;HPM_P2
2022/06/12 00:01:08;;;;;;;1.20;0.30;;;28.30;44.40;;;;;;5053766;28;20055;-48
2022/06/12 00:03:35;;;;;;;3.85;0.70;;;28.30;44.40;;;;;;5055614;28;20055;-47
2022/06/12 00:06:03;;;;;;;0.63;0.63;;;28.30;44.40;;;;;;5051130;28;20102;-52
2022/06/12 00:08:34;;;;;;;1.13;0.43;;;28.30;44.40;;;;;;5046439;28;20041;-50
2022/06/12 00:11:03;;;;;;;1.38;0.50;;;28.20;44.30;;;;;;5054871;28;20135;-48
2022/06/12 00:13:34;;;;;;;1.20;0.85;;;28.20;44.30;;;;;;5057789;28;20037;-54
2022/06/12 00:16:02;;;;;;;1.17;0.82;;;28.20;44.30;;;;;;5050456;28;20084;-51
2022/06/12 00:18:29;;;;;;;2.00;1.23;;;28.20;44.30;;;;;;5053149;28;20037;-47
2022/06/12 00:23:53;;;;;;;0.85;0.68;;;28.20;44.30;;;;;;5069286;28;20434;-50
2022/06/12 00:26:22;;;;;;;1.98;0.80;;;28.20;44.40;;;;;;5065341;28;20040;-51
2022/06/12 00:28:55;;;;;;;0.95;0.88;;;28.20;44.40;;;;;;5073250;28;20040;-51
2022/06/12 00:31:22;;;;;;;2.38;0.80;;;28.20;44.40;;;;;;5073410;28;20517;-50
2022/06/12 00:33:49;;;;;;;2.53;1.25;;;28.10;44.30;;;;;;5067128;28;20065;-52
2022/06/12 00:36:16;;;;;;;2.20;1.27;;;28.10;44.30;;;;;;5069284;28;20037;-53
2022/06/12 00:38:43;;;;;;;4.07;1.02;;;28.10;44.30;;;;;;5067564;28;20041;-53
2022/06/12 00:41:11;;;;;;;2.95;0.82;;;28.10;44.30;;;;;;5079455;28;20076;-52
2022/06/12 00:43:39;;;;;;;2.30;1.83;;;28.10;44.30;;;;;;5070913;28;20048;-50
2022/06/12 00:46:07;;;;;;;3.42;0.85;;;28.10;44.30;;;;;;5071520;28;20055;-51
2022/06/12 00:48:37;;;;;;;1.55;0.60;;;28.10;44.30;;;;;;5067094;28;20041;-55
2022/06/12 00:51:09;;;;;;;3.25;1.13;;;28.10;44.30;;;;;;5067227;28;20115;-52
2022/06/12 00:53:40;;;;;;;1.13;0.50;;;28.10;44.30;;;;;;5064001;28;20041;-51
2022/06/12 00:56:13;;;;;;;2.53;1.00;;;28.10;44.30;;;;;;5073047;28;20820;-53
2022/06/12 00:58:44;;;;;;;1.77;1.42;;;28.10;44.30;;;;;;5069036;28;20538;-53
2022/06/12 01:01:18;;;;;;;1.30;0.65;;;28.00;44.20;;;;;;5070074;28;20052;-51
2022/06/12 01:06:36;;;;;;;1.05;0.50;;;28.00;44.30;;;;;;5070670;28;20044;-54
2022/06/12 01:09:11;;;;;;;1.08;0.50;;;28.00;44.30;;;;;;5077823;28;20036;-49
2022/06/12 01:11:44;;;;;;;2.37;0.47;;;28.00;44.30;;;;;;5063976;28;20507;-54
2022/06/12 01:14:14;;;;;;;1.20;0.32;;;28.00;44.30;;;;;;5069773;28;20044;-55
2022/06/12 01:16:45;;;;;;;2.33;0.60;;;27.90;44.30;;;;;;5068205;28;20519;-54
2022/06/12 01:19:20;;;;;;;0.70;0.40;;;27.90;44.20;;;;;;5071944;28;20134;-54
2022/06/12 01:22:21;;;;;;;0.43;0.40;;;28.00;44.30;;;;;;5069350;28;20076;-51
2022/06/12 01:25:23;;;;;;;1.20;0.30;;;27.90;44.20;;;;;;5067115;28;20057;-54
2022/06/12 01:28:37;;;;;;;3.13;0.40;;;27.90;44.20;;;;;;5027177;28;20077;-52
2022/06/12 01:31:15;;;;;;;1.90;0.55;;;27.90;44.20;;;;;;4974730;28;20089;-54
2022/06/12 01:33:48;;;;;;;1.00;0.40;;;27.90;44.30;;;;;;4952358;28;20051;-53
2022/06/12 01:36:21;;;;;;;1.35;0.20;;;27.80;44.30;;;;;;4961334;28;20043;-54
2022/06/12 01:38:56;;;;;;;1.80;0.40;;;27.90;44.30;;;;;;4952707;28;20191;-53
2022/06/12 01:41:30;;;;;;;1.80;0.35;;;27.90;44.40;;;;;;4955415;28;20959;-53
2022/06/12 01:44:06;;;;;;;1.10;0.52;;;27.90;44.30;;;;;;4966020;28;20524;-54
2022/06/12 01:46:41;;;;;;;0.68;0.10;;;27.90;44.30;;;;;;4957183;28;20049;-53
2022/06/12 01:49:15;;;;;;;1.17;0.20;;;27.80;44.30;;;;;;4960264;28;20051;-55
2022/06/12 01:51:49;;;;;;;0.77;0.30;;;27.90;44.30;;;;;;4960259;28;20062;-52
2022/06/12 01:54:23;;;;;;;0.63;0.10;;;27.80;44.30;;;;;;4953226;28;20038;-51
2022/06/12 01:56:56;;;;;;;1.80;0.30;;;27.80;44.30;;;;;;4955173;28;20515;-55
2022/06/12 01:59:30;;;;;;;2.15;0.20;;;27.80;44.30;;;;;;4964203;28;20047;-54
2022/06/12 02:02:02;;;;;;;2.45;0.20;;;27.80;44.30;;;;;;4988141;28;20053;-53
2022/06/12 02:04:34;;;;;;;0.88;0.55;;;27.80;44.40;;;;;;5030342;28;20065;-54
2022/06/12 02:07:05;;;;;;;0.28;0.20;;;27.80;44.30;;;;;;5053094;28;20037;-52
2022/06/12 02:09:40;;;;;;;1.75;0.47;;;27.80;44.90;;;;;;5055053;28;20466;-55
2022/06/12 02:15:02;;;;;;;1.95;0.20;;;27.80;44.30;;;;;;5023871;28;20207;-50
2022/06/12 02:17:35;;;;;;;0.32;0.20;;;27.70;44.30;;;;;;5022633;28;20532;-51
2022/06/12 02:20:04;;;;;;;1.00;0.10;;;27.80;44.30;;;;;;5025585;28;20578;-53
2022/06/12 02:22:33;;;;;;;0.57;0.17;;;27.70;44.30;;;;;;5025989;28;20471;-51
2022/06/12 02:25:05;;;;;;;0.60;0.50;;;27.70;44.30;;;;;;5020261;28;20450;-49
2022/06/12 02:27:37;;;;;;;0.52;0.20;;;27.80;44.30;;;;;;5022629;28;20504;-51
2022/06/12 02:30:12;;;;;;;0.20;0.10;;;27.70;44.30;;;;;;5023889;28;20075;-52
2022/06/12 02:32:43;;;;;;;2.28;0.45;;;27.70;44.30;;;;;;5018943;28;20116;-52
2022/06/12 02:35:17;;;;;;;0.85;0.10;;;27.70;44.30;;;;;;5024392;28;20045;-49
2022/06/12 02:37:51;;;;;;;0.52;0.10;;;27.70;44.30;;;;;;5024195;28;20050;-52
2022/06/12 02:40:24;;;;;;;1.75;0.20;;;27.70;44.30;;;;;;5021765;28;20096;-53
2022/06/12 02:42:54;;;;;;;0.20;0.10;;;27.70;44.30;;;;;;5023007;28;20140;-51
2022/06/12 02:45:28;;;;;;;0.65;0.10;;;27.70;44.90;;;;;;5020013;28;20041;-50
2022/06/12 02:47:56;;;;;;;1.25;0.60;;;27.70;44.30;;;;;;5021892;28;20048;-55
2022/06/12 02:50:27;;;;;;;0.52;0.10;;;27.60;44.30;;;;;;5023093;28;20129;-55
2022/06/12 02:53:01;;;;;;;0.80;0.13;;;27.60;44.60;;;;;;5044004;28;20053;-54
2022/06/12 02:55:33;;;;;;;0.50;0.15;;;27.70;44.40;;;;;;5051864;28;20049;-51
2022/06/12 02:58:10;;;;;;;1.40;0.20;;;27.60;44.30;;;;;;5058618;28;20048;-52
2022/06/12 03:00:45;;;;;;;0.88;0.50;;;27.70;44.40;;;;;;5049674;28;20049;-49
2022/06/12 03:03:25;;;;;;;1.42;0.20;;;27.60;44.30;;;;;;5047116;28;20541;-50
2022/06/12 03:05:57;;;;;;;0.68;0.68;;;27.60;44.30;;;;;;5053605;28;20049;-49
2022/06/12 03:08:27;;;;;;;3.22;0.80;;;27.60;44.30;;;;;;5047927;28;20052;-51
2022/06/12 03:10:58;;;;;;;0.65;0.22;;;27.60;44.30;;;;;;5053330;28;20532;-53
2022/06/12 03:13:27;;;;;;;3.42;0.77;;;27.60;44.30;;;;;;5053657;28;20800;-49
2022/06/12 03:15:58;;;;;;;2.17;0.68;;;27.60;44.40;;;;;;5051793;28;20040;-51
2022/06/12 03:18:29;;;;;;;1.52;0.90;;;27.60;44.30;;;;;;5053747;28;20509;-54
2022/06/12 03:21:07;;;;;;;1.75;0.85;;;27.60;44.40;;;;;;5052108;28;20043;-51
2022/06/12 03:23:45;;;;;;;2.80;1.60;;;27.60;44.40;;;;;;5045947;28;20560;-49
2022/06/12 03:26:21;;;;;;;2.05;0.82;;;27.60;44.40;;;;;;5057241;28;20403;-50
2022/06/12 03:28:52;;;;;;;;;;;27.60;44.40;;;;;;5055959;28;20140;-53
2022/06/12 03:31:29;;;;;;;4.13;0.98;;;27.50;44.30;;;;;;5054698;28;19946;-50
2022/06/12 03:34:05;;;;;;;1.42;0.80;;;27.50;44.50;;;;;;5051234;28;20041;-48
2022/06/12 03:36:38;;;;;;;1.42;0.88;;;27.50;44.50;;;;;;5055012;28;20067;-51
2022/06/12 03:39:12;;;;;;;2.58;1.45;;;27.50;44.50;;;;;;5052623;28;20064;-52
2022/06/12 03:41:46;;;;;;;3.92;1.05;;;27.40;44.40;;;;;;5051693;28;20056;-52
2022/06/12 03:44:22;;;;;;;2.78;2.58;;;27.50;44.40;;;;;;5048825;28;20053;-51
2022/06/12 03:46:54;;;;;;;4.43;1.65;;;27.50;44.40;;;;;;5051357;28;20041;-51
2022/06/12 03:49:29;;;;;;;4.03;2.70;;;27.50;44.50;;;;;;5056328;28;20518;-52
2022/06/12 03:52:02;;;;;;;5.25;3.08;;;27.50;44.40;;;;;;5050900;28;20052;-52
2022/06/12 03:54:36;;;;;;;5.28;2.58;;;27.40;44.40;;;;;;5053105;28;20110;-54
2022/06/12 03:59:57;;;;;;;5.47;3.83;;;27.50;44.40;;;;;;5048639;28;20509;-47
2022/06/12 04:02:27;;;;;;;4.68;2.63;;;27.40;44.40;;;;;;5047444;28;20076;-53
2022/06/12 04:04:56;;;;;;;4.85;3.05;;;27.40;44.40;;;;;;5056174;28;20045;-53
2022/06/12 04:07:26;;;;;;;4.30;2.50;;;27.40;44.30;;;;;;5055992;28;20164;-52
2022/06/12 04:09:56;;;;;;;3.60;2.35;;;27.40;44.30;;;;;;5050209;28;20184;-54
2022/06/12 04:12:26;;;;;;;3.47;2.78;;;27.40;44.30;;;;;;5052040;28;20268;-50
2022/06/12 04:15:00;;;;;;;5.25;2.72;;;27.40;44.30;;;;;;5049779;28;20049;-50
2022/06/12 04:17:28;;;;;;;2.78;2.17;;;27.40;44.30;;;;;;5061970;28;20033;-49
2022/06/12 04:20:04;;;;;;;1.80;1.42;;;27.40;44.30;;;;;;5056511;28;20409;-53
2022/06/12 04:22:53;;;;;;;2.17;1.75;;;27.40;44.30;;;;;;5056397;28;20052;-50
2022/06/12 04:25:33;;;;;;;3.38;1.52;;;27.40;44.20;;;;;;5050021;28;20087;-49
2022/06/12 04:28:01;;;;;;;4.25;2.15;;;27.40;44.30;;;;;;5053214;28;20452;-51
2022/06/12 04:30:31;;;;;;;1.92;1.30;;;27.40;44.40;;;;;;5052914;28;20043;-52
2022/06/12 04:33:23;;;;;;;3.88;1.67;;;27.40;44.40;;;;;;5050911;28;20541;-53
2022/06/12 04:35:53;;;;;;;5.28;1.63;;;27.40;45.00;;;;;;5048293;28;20041;-52
2022/06/12 04:38:21;;;;;;;1.77;0.90;;;27.40;44.40;;;;;;5050540;28;20123;-53
2022/06/12 04:40:49;;;;;;;1.95;1.60;;;27.40;44.40;;;;;;5055110;28;20153;-55
2022/06/12 04:43:16;;;;;;;2.72;1.05;;;27.30;44.30;;;;;;5050114;28;20561;-49
2022/06/12 04:45:44;;;;;;;1.67;1.27;;;27.40;44.30;;;;;;5053045;28;20501;-52
2022/06/12 04:48:18;;;;;;;2.03;1.40;;;27.30;44.20;;;;;;5050459;28;20064;-49
2022/06/12 04:50:45;;;;;;;2.15;0.68;;;27.40;44.30;;;;;;5051083;28;20079;-54
2022/06/12 04:53:12;;;;;;;4.07;0.73;;;27.30;44.20;;;;;;5047153;28;20041;-53
2022/06/12 04:55:39;;;;;;;2.53;0.85;;;27.40;44.30;;;;;;5054768;28;20091;-49
2022/06/12 04:58:07;;;;;;;1.80;0.80;;;27.40;44.20;;;;;;5057886;28;20040;-51
2022/06/12 05:00:34;;;;;;;1.35;0.60;;;27.40;44.20;;;;;;5052031;28;20073;-51
2022/06/12 05:03:02;;;;;;;3.83;1.25;;;27.40;44.20;;;;;;5051196;28;20109;-49
2022/06/12 05:05:31;;;;;;;0.93;0.55;;;27.40;44.20;;;;;;5049786;28;20041;-53
2022/06/12 05:07:59;;;;;;;4.75;0.50;;;27.40;44.20;;;;;;5057196;28;20037;-51
2022/06/12 05:10:26;;;;;;;2.15;0.70;;;27.40;44.10;;;;;;5052739;28;20049;-51
2022/06/12 05:12:53;;;;;;;1.40;0.80;;;27.40;44.10;;;;;;5058244;28;20045;-51
2022/06/12 05:15:20;;;;;;;1.60;0.60;;;27.40;44.10;;;;;;5058698;28;20039;-52
2022/06/12 05:17:49;;;;;;;0.50;0.50;;;27.40;44.10;;;;;;5054914;28;20062;-53
2022/06/12 05:20:19;;;;;;;1.65;0.80;;;27.40;44.10;;;;;;5054780;28;20072;-49
2022/06/12 05:22:48;;;;;;;2.70;0.88;;;27.40;44.10;;;;;;5054753;28;20430;-51
2022/06/12 05:25:16;;;;;;;1.52;0.32;;;27.40;44.10;;;;;;5059498;28;20144;-52
2022/06/12 05:27:44;;;;;;;1.77;0.50;;;27.40;44.10;;;;;;5054222;28;20381;-51
2022/06/12 05:30:13;;;;;;;1.85;0.65;;;27.40;44.10;;;;;;5061071;28;20059;-51
2022/06/12 05:32:40;;;;;;;1.25;0.47;;;27.40;44.10;;;;;;5054642;28;20149;-53
2022/06/12 05:35:08;;;;;;;0.30;0.30;;;27.40;44.00;;;;;;5052867;28;20056;-51
2022/06/12 05:37:36;;;;;;;0.98;0.25;;;27.40;44.00;;;;;;5057383;28;20052;-54
2022/06/12 05:40:10;;;;;;;0.60;0.35;;;27.40;44.00;;;;;;5055327;28;20061;-51
2022/06/12 05:42:37;;;;;;;2.00;0.70;;;27.40;43.90;;;;;;5054616;28;20131;-52
2022/06/12 05:45:06;;;;;;;0.30;0.30;;;27.40;43.90;;;;;;5057256;28;20044;-53
2022/06/12 05:47:33;;;;;;;0.93;0.82;;;27.40;43.80;;;;;;5048711;28;20060;-52
2022/06/12 05:50:01;;;;;;;2.60;0.30;;;27.50;43.90;;;;;;5054239;28;20044;-49
2022/06/12 05:52:28;;;;;;;0.65;0.20;;;27.50;43.90;;;;;;5052980;28;20505;-49
2022/06/12 05:54:55;;;;;;;1.75;0.35;;;27.50;43.90;;;;;;5053649;28;20048;-50
2022/06/12 05:57:23;;;;;;;0.45;0.20;;;27.50;43.80;;;;;;5054754;28;20562;-53
2022/06/12 05:59:50;;;;;;;0.90;0.55;;;27.50;43.80;;;;;;5054176;28;20037;-54
2022/06/12 06:02:17;;;;;;;1.00;0.20;;;27.50;43.80;;;;;;5049330;28;20529;-54
2022/06/12 06:04:44;;;;;;;1.13;0.30;;;27.50;43.70;;;;;;5052986;28;20057;-52
2022/06/12 06:07:11;;;;;;;0.43;0.10;;;27.50;43.70;;;;;;5057246;28;20076;-55
2022/06/12 06:09:38;;;;;;;0.85;0.20;;;27.50;43.60;;;;;;5052647;28;20611;-55
2022/06/12 06:12:06;;;;;;;1.05;0.20;;;27.50;43.60;;;;;;5052601;28;20552;-54
2022/06/12 06:14:35;;;;;;;0.85;0.25;;;27.50;43.60;;;;;;5047797;28;20037;-55
2022/06/12 06:17:02;;;;;;;0.68;0.10;;;27.60;43.60;;;;;;5055987;28;20045;-53
2022/06/12 06:19:29;;;;;;;1.05;0.20;;;27.60;43.50;;;;;;5054934;28;20572;-55
2022/06/12 06:21:56;;;;;;;1.70;0.60;;;27.60;43.50;;;;;;5055612;28;20049;-52
2022/06/12 06:24:24;;;;;;;0.65;0.20;;;27.60;43.40;;;;;;5054181;28;20040;-53
2022/06/12 06:26:51;;;;;;;2.05;0.45;;;27.60;43.40;;;;;;5055027;28;20132;-51
2022/06/12 06:29:18;;;;;;;0.65;0.10;;;27.60;43.40;;;;;;5049744;28;20052;-53
2022/06/12 06:31:46;;;;;;;1.52;0.28;;;27.60;43.30;;;;;;5057955;28;20167;-54
2022/06/12 06:34:13;;;;;;;0.40;0.20;;;27.60;43.30;;;;;;5058347;28;20838;-51
2022/06/12 06:36:41;;;;;;;1.60;0.35;;;27.60;43.20;;;;;;5051981;28;20138;-49
2022/06/12 06:39:08;;;;;;;1.17;0.40;;;27.70;43.30;;;;;;5054906;28;20529;-46
2022/06/12 06:41:35;;;;;;;2.08;0.30;;;27.70;43.20;;;;;;5051885;28;20037;-50
2022/06/12 06:46:48;;;;;;;0.32;0.10;;;27.60;43.10;;;;;;5054050;28;20452;-49
2022/06/12 06:49:15;;;;;;;0.90;0.10;;;27.70;43.10;;;;;;5055890;28;20045;-49
2022/06/12 06:51:42;;;;;;;1.08;0.10;;;27.70;43.10;;;;;;5054033;28;20052;-48
2022/06/12 06:54:09;;;;;;;1.77;0.20;;;27.70;43.00;;;;;;5051954;28;20029;-54
2022/06/12 06:56:36;;;;;;;0.77;0.10;;;27.70;43.00;;;;;;5050097;28;20039;-50
2022/06/12 06:59:03;;;;;;;0.82;0.15;;;27.70;43.00;;;;;;5057132;28;20193;-52
2022/06/12 07:01:30;;;;;;;0.85;0.10;;;27.70;43.00;;;;;;5053298;28;20138;-52
2022/06/12 07:03:58;;;;;;;1.13;0.10;;;27.70;42.90;;;;;;5052741;28;20405;-52
2022/06/12 07:06:25;;;;;;;1.00;0.10;;;27.70;42.90;;;;;;5053907;28;20040;-51
2022/06/12 07:08:53;;;;;;;0.45;0.17;;;27.70;42.90;;;;;;5052066;28;20494;-51
2022/06/12 07:11:20;;;;;;;0.63;0.10;;;27.70;42.80;;;;;;5049172;28;20126;-50
2022/06/12 07:13:47;;;;;;;3.22;0.30;;;27.70;42.80;;;;;;5056075;28;20048;-52
2022/06/12 07:16:14;;;;;;;0.20;0.10;;;27.70;42.70;;;;;;5055930;28;20172;-53
2022/06/12 07:18:42;;;;;;;0.30;0.10;;;27.80;42.80;;;;;;5051969;28;20033;-50
2022/06/12 07:21:12;;;;;;;0.57;0.15;;;27.70;42.70;;;;;;5052655;28;20566;-50
2022/06/12 07:23:40;;;;;;;0.57;0.57;;;27.80;42.70;;;;;;5050022;28;20064;-50
2022/06/12 07:26:10;;;;;;;0.47;0.10;;;27.80;42.70;;;;;;5056148;28;20043;-49
2022/06/12 07:28:38;;;;;;;0.25;0.20;;;27.80;42.60;;;;;;5054826;28;20126;-49
2022/06/12 07:31:08;;;;;;;0.98;0.20;;;27.80;42.60;;;;;;5054544;28;20041;-53
2022/06/12 07:33:37;;;;;;;2.40;0.10;;;27.80;42.60;;;;;;5055805;28;20124;-53
2022/06/12 07:36:06;;;;;;;3.10;0.13;;;27.80;42.60;;;;;;5052138;28;20094;-51
2022/06/12 07:38:35;;;;;;;1.17;0.25;;;27.70;42.40;;;;;;5050331;28;20583;-49
2022/06/12 07:41:04;;;;;;;2.97;0.10;;;27.80;42.50;;;;;;5052589;28;20037;-53
2022/06/12 07:43:34;;;;;;;0.68;0.10;;;27.80;42.40;;;;;;5058549;28;20698;-55
2022/06/12 07:46:02;;;;;;;1.30;0.20;;;27.80;42.40;;;;;;5051633;28;20045;-55
2022/06/12 07:48:31;;;;;;;0.98;0.45;;;27.80;42.40;;;;;;5053815;28;20036;-53
2022/06/12 07:51:00;;;;;;;1.27;0.30;;;27.80;42.30;;;;;;5056761;28;20466;-52
2022/06/12 07:53:27;;;;;;;0.50;0.10;;;27.80;42.30;;;;;;5053795;28;20431;-48
2022/06/12 07:55:55;;;;;;;0.50;0.10;;;27.80;42.30;;;;;;5052552;28;20068;-50
2022/06/12 07:58:24;;;;;;;0.50;0.47;;;27.80;42.20;;;;;;5055160;28;20063;-48
2022/06/12 08:00:52;;;;;;;1.05;0.10;;;27.80;42.30;;;;;;5056699;28;20040;-54
2022/06/12 08:03:19;;;;;;;0.47;0.10;;;27.80;42.20;;;;;;5059673;28;20068;-53
2022/06/12 08:05:46;;;;;;;0.57;0.13;;;27.80;42.10;;;;;;5048199;28;20060;-50
2022/06/12 08:08:13;;;;;;;0.77;0.10;;;27.80;42.10;;;;;;5051693;28;20056;-51
2022/06/12 08:10:40;;;;;;;1.08;0.10;;;27.80;42.10;;;;;;5053968;28;20076;-46
2022/06/12 08:13:10;;;;;;;0.68;0.68;;;27.80;42.10;;;;;;5052576;28;20052;-52
2022/06/12 08:15:39;;;;;;;0.10;0.10;;;27.80;42.00;;;;;;5052640;28;20051;-53
2022/06/12 08:18:07;;;;;;;0.60;0.10;;;27.80;42.00;;;;;;5050984;28;20653;-54
2022/06/12 08:20:37;;;;;;;0.55;0.52;;;27.80;42.00;;;;;;5047198;28;20131;-53
2022/06/12 08:23:26;;;;;;;0.85;0.65;;;27.80;42.00;;;;;;5049749;28;20045;-53
2022/06/12 08:25:55;;;;;;;0.20;0.10;;;27.80;41.90;;;;;;5061114;28;20386;-49
2022/06/12 08:28:24;;;;;;;0.32;0.10;;;27.80;41.90;;;;;;5051146;28;20518;-51
2022/06/12 08:30:52;;;;;;;0.40;0.10;;;27.80;42.00;;;;;;5053013;28;20128;-53
2022/06/12 08:33:20;;;;;;;0.55;0.10;;;27.80;41.90;;;;;;5051287;28;20033;-51
2022/06/12 08:35:47;;;;;;;0.30;0.10;;;27.80;41.90;;;;;;5050601;28;20061;-48
2022/06/12 08:38:15;;;;;;;0.40;0.30;;;27.80;41.90;;;;;;5048291;28;20048;-50
2022/06/12 08:40:51;;;;;;;0.50;0.43;;;27.80;41.80;;;;;;5054418;28;20081;-49
2022/06/12 08:43:23;;;;;;;;;;;27.90;41.90;;;;;;5055058;28;20850;-53
2022/06/12 08:45:54;;;;;;;1.65;0.35;;;27.80;41.80;;;;;;5054179;28;19963;-48
2022/06/12 08:48:27;;;;;;;1.27;0.30;;;27.80;42.00;;;;;;5055612;28;20032;-54
2022/06/12 08:51:01;;;;;;;1.73;0.10;;;27.80;41.90;;;;;;5053150;28;20061;-53
2022/06/12 08:53:34;;;;;;;2.13;0.10;;;27.80;42.40;;;;;;5056036;28;20106;-49
2022/06/12 08:56:06;;;;;;;0.20;0.10;;;27.80;41.80;;;;;;5056327;28;20037;-51
2022/06/12 08:58:39;;;;;;;1.80;0.20;;;27.80;41.80;;;;;;5059854;28;20452;-52
2022/06/12 09:01:07;;;;;;;0.17;0.10;;;27.80;41.80;;;;;;5059730;28;20048;-54
2022/06/12 09:03:39;;;;;;;1.27;0.17;;;27.90;41.90;;;;;;5053928;28;20037;-54
2022/06/12 09:06:15;;;;;;;1.95;0.10;;;27.90;42.40;;;;;;5053517;28;20133;-53
2022/06/12 09:08:48;;;;;;;0.68;0.35;;;27.90;41.80;;;;;;5049450;28;20124;-54
2022/06/12 09:11:18;;;;;;;0.60;0.20;;;27.90;41.80;;;;;;5058317;28;20047;-54
2022/06/12 09:13:58;;;;;;;2.33;0.10;;;27.90;41.80;;;;;;5055661;28;20140;-55
2022/06/12 09:16:33;;;;;;;1.88;0.20;;;27.90;41.80;;;;;;5058041;28;20588;-52
2022/06/12 09:19:07;;;;;;;1.17;0.20;;;27.90;41.80;;;;;;5056910;28;20068;-50
2022/06/12 09:21:45;;;;;;;1.20;0.47;;;27.90;41.80;;;;;;5056162;28;20044;-53
2022/06/12 09:24:23;;;;;;;0.55;0.30;;;27.90;41.70;;;;;;5054257;28;20123;-53
2022/06/12 09:27:02;;;;;;;0.28;0.20;;;27.90;41.70;;;;;;5055106;28;20136;-54
2022/06/12 09:29:37;;;;;;;1.13;0.57;;;27.90;41.70;;;;;;5049794;28;20098;-51
2022/06/12 09:32:13;;;;;;;0.32;0.30;;;27.90;41.70;;;;;;5052520;28;20513;-54
2022/06/12 09:34:54;;;;;;;;;;;27.90;41.70;;;;;;5062506;28;20136;-52
2022/06/12 09:40:28;;;;;;;0.63;0.20;;;27.90;41.80;;;;;;5056184;28;20063;-54
2022/06/12 09:43:03;;;;;;;0.40;0.10;;;27.90;41.70;;;;;;5054309;28;20044;-53
2022/06/12 09:45:44;;;;;;;0.65;0.25;;;27.90;41.70;;;;;;5053129;28;20049;-53
2022/06/12 09:48:22;;;;;;;0.40;0.13;;;27.90;41.70;;;;;;5054575;28;20082;-50
2022/06/12 09:50:59;;;;;;;0.73;0.10;;;27.90;41.60;;;;;;5051704;28;20596;-52
2022/06/12 09:53:44;;;;;;;1.77;0.10;;;27.90;41.60;;;;;;5053513;28;20044;-50
2022/06/12 09:56:17;;;;;;;1.15;0.25;;;27.90;41.60;;;;;;5049810;28;20472;-51
2022/06/12 09:58:51;;;;;;;1.70;0.30;;;27.90;41.60;;;;;;5057889;28;20140;-52
2022/06/12 10:01:21;;;;;;;0.47;0.28;;;27.90;41.50;;;;;;5059153;28;20119;-52
2022/06/12 10:03:55;;;;;;;1.33;0.20;;;28.00;41.60;;;;;;5053241;28;20037;-54
2022/06/12 10:06:28;;;;;;;1.65;0.30;;;28.00;41.50;;;;;;5053434;28;20123;-52
2022/06/12 10:09:02;;;;;;;1.77;0.55;;;28.00;41.50;;;;;;5052017;28;20053;-51
2022/06/12 10:11:34;;;;;;;1.73;1.00;;;28.00;41.50;;;;;;5054942;28;20047;-52
2022/06/12 10:14:07;;;;;;;2.28;0.70;;;28.00;41.50;;;;;;5049806;28;20190;-53
2022/06/12 10:16:39;;;;;;;1.02;0.57;;;28.10;41.50;;;;;;5058708;28;20052;-51
2022/06/12 10:19:13;;;;;;;2.65;1.10;;;28.10;41.50;;;;;;5059264;28;20072;-52
2022/06/12 10:21:43;;;;;;;2.03;1.20;;;28.10;41.40;;;;;;5052736;28;20716;-53
2022/06/12 10:24:12;;;;;;;2.05;1.73;;;28.10;41.40;;;;;;5053121;28;20102;-55
2022/06/12 10:26:39;;;;;;;6.93;2.00;;;28.10;41.40;;;;;;5053348;28;20055;-51
2022/06/12 10:29:09;;;;;;;4.40;2.72;;;28.10;41.40;;;;;;5058803;28;20044;-54
2022/06/12 10:31:48;;;;;;;5.78;1.65;;;28.10;41.30;;;;;;5055889;28;20029;-49
2022/06/12 10:34:21;;;;;;;4.13;2.95;;;28.10;41.30;;;;;;5057362;28;20638;-53
2022/06/12 10:36:48;;;;;;;3.33;2.45;;;28.10;41.70;;;;;;5054742;28;20065;-52
2022/06/12 10:39:20;;;;;;;5.60;3.30;;;28.10;41.30;;;;;;5053352;28;20607;-53
2022/06/12 10:41:51;;;;;;;4.68;2.72;;;28.10;41.20;;;;;;5050042;28;20041;-53
2022/06/12 10:44:32;;;;;;;5.45;2.58;;;28.20;41.30;;;;;;5054623;28;20049;-53
2022/06/12 10:47:10;;;;;;;3.40;2.25;;;28.20;41.20;;;;;;5054348;28;20056;-51
2022/06/12 10:49:38;;;;;;;5.55;2.70;;;28.20;41.80;;;;;;5058631;28;20051;-52
2022/06/12 10:52:08;;;;;;;4.05;2.72;;;28.20;41.20;;;;;;5056949;28;20037;-48
2022/06/12 10:54:35;;;;;;;4.55;2.85;;;28.20;41.20;;;;;;5052253;28;20040;-53
2022/06/12 10:57:11;;;;;;;3.72;2.92;;;28.20;41.10;;;;;;5052538;28;20036;-53
2022/06/12 10:59:42;;;;;;;3.10;2.83;;;28.20;41.10;;;;;;5048316;28;20126;-53
2022/06/12 11:02:40;;;;;;;4.80;3.28;;;28.30;41.10;;;;;;5055566;28;20053;-52
2022/06/12 11:05:44;;;;;;;3.63;2.38;;;28.30;41.10;;;;;;5048280;28;20512;-51
2022/06/12 11:08:28;;;;;;;4.18;2.75;;;28.30;41.10;;;;;;5050729;28;20413;-51
2022/06/12 11:11:04;;;;;;;5.35;2.75;;;28.30;41.10;;;;;;5058265;28;20091;-49
2022/06/12 11:13:56;;;;;;;4.68;2.67;;;28.30;41.00;;;;;;5052827;28;20083;-47
2022/06/12 11:16:37;;;;;;;3.88;2.88;;;28.30;41.00;;;;;;5054834;28;20409;-49
2022/06/12 11:19:21;;;;;;;2.75;1.67;;;28.30;41.00;;;;;;5055384;28;20049;-52
2022/06/12 11:22:00;;;;;;;4.60;2.20;;;28.40;41.00;;;;;;5053798;28;20103;-48
2022/06/12 11:24:31;;;;;;;3.33;1.75;;;28.40;40.90;;;;;;5054197;28;20044;-51
2022/06/12 11:27:28;;;;;;;1.90;1.30;;;28.30;40.80;;;;;;5052004;28;20151;-47
2022/06/12 11:30:05;;;;;;;;;;;28.40;40.80;;;;;;5049191;28;20047;-52
2022/06/12 11:32:48;;;;;;;2.55;1.33;;;28.40;40.90;;;;;;5047507;28;19967;-53
2022/06/12 11:35:28;;;;;;;2.40;2.13;;;28.40;40.90;;;;;;5051717;28;20128;-47
2022/06/12 11:38:12;;;;;;;2.22;1.40;;;28.40;40.80;;;;;;5058165;28;20068;-49
2022/06/12 11:40:46;;;;;;;3.28;2.08;;;28.50;40.70;;;;;;5054706;28;20152;-53
2022/06/12 11:43:20;;;;;;;1.80;1.50;;;28.50;40.70;;;;;;5055558;28;20135;-50
2022/06/12 11:46:09;;;;;;;2.25;1.15;;;28.50;40.70;;;;;;5056644;28;20131;-51
2022/06/12 11:49:03;;;;;;;1.55;1.27;;;28.60;40.60;;;;;;5058734;28;20111;-50
2022/06/12 11:51:40;;;;;;;2.47;1.30;;;28.60;40.60;;;;;;5054275;28;20048;-50
2022/06/12 11:54:35;;;;;;;1.88;1.38;;;28.60;40.50;;;;;;5053443;28;20032;-49
2022/06/12 11:57:18;;;;;;;2.17;1.10;;;28.70;40.40;;;;;;5056164;28;20033;-53
2022/06/12 11:59:57;;;;;;;2.58;1.10;;;28.70;40.40;;;;;;5048396;28;20041;-53
2022/06/12 12:02:45;;;;;;;2.65;1.08;;;28.70;40.30;;;;;;5051557;28;20575;-51
2022/06/12 12:05:29;;;;;;;2.30;1.23;;;28.80;40.30;;;;;;5049062;28;20040;-52
2022/06/12 12:08:07;;;;;;;2.92;0.70;;;28.80;40.80;;;;;;5051117;28;20421;-50
2022/06/12 12:10:47;;;;;;;2.05;0.73;;;28.80;40.10;;;;;;5057670;28;20049;-54
2022/06/12 12:13:18;;;;;;;2.78;0.95;;;28.90;40.10;;;;;;5051890;28;20040;-53
2022/06/12 12:15:49;;;;;;;2.35;1.13;;;28.90;40.00;;;;;;5053545;28;20612;-51
2022/06/12 12:18:26;;;;;;;3.15;0.50;;;28.90;39.90;;;;;;5051151;28;20037;-54
2022/06/12 12:20:55;;;;;;;1.15;0.88;;;29.00;39.80;;;;;;5057778;28;20534;-50
2022/06/12 12:23:27;;;;;;;2.05;0.50;;;29.00;39.70;;;;;;5047857;28;20059;-52
2022/06/12 12:26:02;;;;;;;1.00;0.80;;;29.10;39.70;;;;;;5055256;28;20115;-50
2022/06/12 12:28:35;;;;;;;1.85;0.45;;;29.10;39.60;;;;;;5055372;28;20041;-52
2022/06/12 12:31:04;;;;;;;1.05;0.57;;;29.20;39.60;;;;;;5051287;28;20048;-55
2022/06/12 12:33:33;;;;;;;3.47;0.77;;;29.20;39.60;;;;;;5049553;28;20412;-54
2022/06/12 12:41:45;;;;;;;1.48;0.73;;;29.30;39.40;;;;;;4979882;28;20051;-52
2022/06/12 12:44:14;;;;;;;2.63;0.60;;;29.40;39.40;;;;;;4969251;28;20050;-53
2022/06/12 12:46:49;;;;;;;0.75;0.47;;;29.40;39.30;;;;;;4976446;28;20043;-52
2022/06/12 12:49:25;;;;;;;0.95;0.60;;;29.50;39.90;;;;;;4976529;28;20087;-54
2022/06/12 12:52:04;;;;;;;1.42;0.77;;;29.50;39.20;;;;;;4978230;28;20106;-52
2022/06/12 12:54:43;;;;;;;1.85;0.25;;;29.50;39.10;;;;;;4971889;28;20042;-51
2022/06/12 12:57:11;;;;;;;0.30;0.20;;;29.60;39.20;;;;;;4972216;28;20125;-51
2022/06/12 12:59:42;;;;;;;1.63;0.30;;;29.60;39.20;;;;;;4978801;28;20046;-51
2022/06/12 13:02:26;;;;;;;0.65;0.30;;;29.60;39.00;;;;;;4973358;28;20058;-51
2022/06/12 13:04:55;;;;;;;0.43;0.20;;;29.70;39.00;;;;;;4980177;28;20129;-51
2022/06/12 13:07:54;;;;;;;1.30;0.30;;;29.70;39.00;;;;;;4977863;28;20061;-47
2022/06/12 13:10:40;;;;;;;0.90;0.32;;;29.80;39.00;;;;;;4959098;28;20047;-48
2022/06/12 13:13:42;;;;;;;1.23;0.45;;;29.80;39.00;;;;;;4978694;28;20091;-51
2022/06/12 13:16:16;;;;;;;1.52;0.32;;;29.90;39.00;;;;;;4999000;28;20148;-51
2022/06/12 13:19:07;;;;;;;2.33;0.40;;;29.90;38.90;;;;;;5054586;28;20048;-50
2022/06/12 13:21:40;;;;;;;0.50;0.32;;;29.90;38.80;;;;;;5050340;28;20128;-52
2022/06/12 13:24:31;;;;;;;0.17;0.17;;;30.00;38.80;;;;;;5050125;28;20072;-53
2022/06/12 13:26:59;;;;;;;0.50;0.22;;;30.00;38.70;;;;;;5049576;28;20040;-52
2022/06/12 13:29:28;;;;;;;0.77;0.20;;;30.00;38.70;;;;;;5052171;28;20128;-52
2022/06/12 13:31:57;;;;;;;0.32;0.20;;;30.10;38.70;;;;;;5055798;28;20055;-50
2022/06/12 13:34:24;;;;;;;0.50;0.10;;;30.10;38.60;;;;;;5056437;28;20127;-48
2022/06/12 13:36:52;;;;;;;1.00;0.20;;;30.10;38.60;;;;;;5057823;28;20044;-53
2022/06/12 13:39:26;;;;;;;1.73;0.20;;;30.20;38.60;;;;;;5053636;28;20047;-49